createdAt,value
2019-01-25T00:00:37.534Z,44.97
2019-01-25T00:03:27.038Z,39.63
2019-01-25T00:06:09.735Z,40.20
2019-01-25T00:08:59.244Z,39.23
2019-01-25T00:11:42.574Z,37.63
2019-01-25T00:14:32.212Z,36.57
2019-01-25T00:17:13.983Z,41.73
2019-01-25T00:23:11.254Z,44.63
2019-01-25T00:26:00.971Z,43.37
2019-01-25T00:31:40.022Z,42.07
2019-01-25T00:34:29.552Z,48.33
2019-01-25T00:37:11.318Z,40.23
2019-01-25T00:43:01.658Z,44.73
2019-01-25T00:45:51.234Z,40.13
2019-01-25T00:48:33.875Z,34.90
2019-01-25T00:51:15.977Z,40.23
2019-01-25T00:57:35.361Z,39.67
2019-01-25T01:00:18.554Z,39.10
2019-01-25T01:03:08.166Z,36.13
2019-01-25T01:05:57.685Z,32.50
2019-01-25T01:11:56.282Z,38.40
2019-01-25T01:14:47.285Z,39.30
2019-01-25T01:17:29.318Z,40.53
2019-01-25T01:23:27.429Z,39.43
2019-01-25T01:26:17.010Z,36.73
2019-01-25T01:29:45.953Z,39.97
2019-01-25T01:32:28.018Z,42.30
2019-01-25T01:35:17.741Z,43.70
2019-01-25T01:38:00.342Z,41.80
2019-01-25T01:40:49.880Z,44.40
2019-01-25T01:43:58.314Z,41.50
2019-01-25T01:46:40.484Z,39.40
2019-01-25T01:49:43.388Z,41.30
2019-01-25T01:52:15.810Z,43.27
2019-01-25T01:58:15.239Z,45.67
2019-01-25T02:00:58.280Z,45.40
2019-01-25T02:03:40.457Z,40.03
2019-01-25T02:06:30.139Z,49.03
2019-01-25T02:09:12.533Z,49.40
2019-01-25T02:15:09.006Z,45.13
2019-01-25T02:17:58.558Z,44.60
2019-01-25T02:23:56.518Z,44.07
2019-01-25T02:32:44.811Z,47.27
2019-01-25T02:35:32.779Z,48.93
2019-01-25T02:38:15.350Z,41.03
2019-01-25T02:41:04.929Z,43.90
2019-01-25T02:43:46.633Z,48.57
2019-01-25T02:46:36.147Z,47.37
2019-01-25T02:49:18.101Z,46.17
2019-01-25T02:52:07.635Z,49.80
2019-01-25T02:54:49.595Z,45.13
2019-01-25T03:00:46.627Z,48.20
2019-01-25T03:03:36.249Z,43.77
2019-01-25T03:06:18.712Z,46.37
2019-01-25T03:12:18.054Z,40.47
2019-01-25T03:18:30.106Z,43.10
2019-01-25T03:21:13.839Z,40.03
2019-01-25T03:24:03.386Z,38.70
2019-01-25T03:26:45.868Z,40.23
2019-01-25T03:29:54.448Z,46.90
2019-01-25T03:32:37.030Z,38.63
2019-01-25T03:36:06.505Z,33.77
2019-01-25T03:38:48.658Z,43.17
2019-01-25T03:44:44.757Z,38.30
2019-01-25T03:50:35.191Z,34.73
2019-01-25T03:53:17.581Z,32.17
2019-01-25T03:56:07.120Z,39.93
2019-01-25T03:58:48.843Z,38.70
2019-01-25T04:01:31.013Z,33.47
2019-01-25T04:04:21.421Z,30.93
2019-01-25T04:07:04.114Z,32.33
2019-01-25T04:09:46.430Z,35.40
2019-01-25T04:12:35.980Z,32.97
2019-01-25T04:15:18.834Z,28.77
2019-01-25T04:18:27.505Z,30.37
2019-01-25T04:21:09.830Z,27.10
2019-01-25T04:23:59.608Z,28.50
2019-01-25T04:26:42.045Z,29.33
2019-01-25T04:29:24.067Z,32.17
2019-01-25T04:32:13.751Z,29.07
2019-01-25T04:34:56.368Z,30.47
2019-01-25T04:40:39.245Z,25.60
2019-01-25T04:46:34.815Z,26.57
2019-01-25T04:49:18.159Z,27.33
2019-01-25T04:52:52.447Z,26.80
2019-01-25T04:55:35.255Z,22.73
2019-01-25T04:58:28.481Z,25.93
2019-01-25T05:01:11.166Z,25.53
2019-01-25T05:07:07.526Z,27.37
2019-01-25T05:12:58.561Z,22.67
2019-01-25T05:15:41.372Z,24.73
2019-01-25T05:18:24.253Z,24.97
2019-01-25T05:24:42.805Z,20.93
2019-01-25T05:27:24.853Z,23.97
2019-01-25T05:30:14.561Z,26.37
2019-01-25T05:36:39.566Z,22.13
2019-01-25T05:42:36.396Z,23.40
2019-01-25T05:48:46.045Z,25.63
2019-01-25T05:51:33.621Z,26.03
2019-01-25T05:54:19.009Z,23.37
2019-01-25T06:00:19.640Z,22.30
2019-01-25T06:12:35.229Z,25.97
2019-01-25T06:15:17.690Z,22.13
2019-01-25T06:18:07.426Z,20.27
2019-01-25T06:20:52.710Z,24.47
2019-01-25T06:23:42.251Z,23.23
2019-01-25T06:26:25.035Z,24.03
2019-01-25T06:29:33.511Z,22.93
2019-01-25T06:32:16.373Z,23.70
2019-01-25T06:38:12.775Z,21.50
2019-01-25T06:41:02.856Z,22.90
2019-01-25T06:43:44.672Z,24.70
2019-01-25T06:46:36.264Z,22.43
2019-01-25T06:49:18.295Z,22.93
2019-01-25T06:52:07.860Z,21.17
2019-01-25T06:54:50.493Z,19.70
2019-01-25T06:57:58.933Z,23.93
2019-01-25T07:03:57.262Z,22.50
2019-01-25T07:06:38.932Z,20.53
2019-01-25T07:12:36.555Z,22.07
2019-01-25T07:18:14.267Z,26.03
2019-01-25T07:27:28.255Z,28.40
2019-01-25T07:30:11.179Z,23.33
2019-01-25T07:33:19.625Z,29.20
2019-01-25T07:36:02.055Z,23.07
2019-01-25T07:38:51.751Z,26.33
2019-01-25T07:41:34.220Z,21.53
2019-01-25T07:44:23.865Z,26.37
2019-01-25T07:47:13.404Z,26.30
2019-01-25T07:49:55.756Z,26.37
2019-01-25T07:55:53.809Z,25.03
2019-01-25T07:58:43.281Z,26.90
2019-01-25T08:01:25.906Z,30.80
2019-01-25T08:04:15.470Z,24.47
2019-01-25T08:06:57.743Z,22.20
2019-01-25T08:09:47.398Z,26.13
2019-01-25T08:12:29.127Z,27.37
2019-01-25T08:18:46.699Z,25.87
2019-01-25T08:21:36.314Z,26.33
2019-01-25T08:27:34.241Z,26.67
2019-01-25T08:30:23.934Z,26.47
2019-01-25T08:33:13.712Z,29.60
2019-01-25T08:35:57.514Z,26.53
2019-01-25T08:38:49.855Z,29.43
2019-01-25T08:41:34.483Z,27.47
2019-01-25T08:44:42.938Z,34.17
2019-01-25T08:47:25.036Z,27.57
2019-01-25T08:53:41.742Z,28.90
2019-01-25T08:56:23.691Z,32.40
2019-01-25T08:59:13.235Z,29.03
2019-01-25T09:01:56.750Z,29.83
2019-01-25T09:04:44.735Z,25.47
2019-01-25T09:07:31.280Z,33.97
2019-01-25T09:10:14.377Z,30.47
2019-01-25T09:15:59.080Z,28.57
2019-01-25T09:18:48.621Z,30.63
2019-01-25T09:21:30.799Z,30.53
2019-01-25T09:24:20.332Z,30.83
2019-01-25T09:27:09.880Z,32.63
2019-01-25T09:29:54.704Z,30.50
2019-01-25T09:35:51.953Z,30.07
2019-01-25T09:41:42.816Z,31.53
2019-01-25T09:44:24.992Z,29.20
2019-01-25T09:47:14.529Z,24.10
2019-01-25T09:49:56.864Z,30.60
2019-01-25T09:55:54.181Z,30.03
2019-01-25T09:58:37.786Z,29.90
2019-01-25T10:01:27.524Z,29.23
2019-01-25T10:04:09.977Z,31.83
2019-01-25T10:06:59.479Z,31.87
2019-01-25T10:09:41.720Z,31.23
2019-01-25T10:12:36.088Z,31.83
2019-01-25T10:15:15.812Z,29.03
2019-01-25T10:21:00.497Z,28.70
2019-01-25T10:29:42.080Z,33.73
2019-01-25T10:32:31.660Z,31.47
2019-01-25T10:35:14.233Z,31.63
2019-01-25T10:41:02.024Z,33.50
2019-01-25T10:43:44.336Z,38.97
2019-01-25T10:46:33.978Z,36.77
2019-01-25T10:49:15.810Z,27.30
2019-01-25T10:55:13.912Z,26.13
2019-01-25T10:58:03.500Z,35.17
2019-01-25T11:00:45.925Z,33.70
2019-01-25T11:03:35.484Z,33.03
2019-01-25T11:06:17.914Z,33.50
2019-01-25T11:12:36.486Z,40.97
2019-01-25T11:16:05.426Z,32.80
2019-01-25T11:18:47.169Z,34.97
2019-01-25T11:21:37.591Z,27.33
2019-01-25T11:24:20.617Z,38.20
2019-01-25T11:27:29.440Z,30.97
2019-01-25T11:30:13.146Z,31.67
2019-01-25T11:33:02.671Z,28.30
2019-01-25T11:35:44.874Z,27.00
2019-01-25T11:42:01.623Z,24.53
2019-01-25T11:44:44.283Z,23.20
2019-01-25T11:50:36.364Z,29.60
2019-01-25T11:53:18.647Z,27.87
2019-01-25T11:56:08.223Z,33.43
2019-01-25T11:58:50.880Z,28.57
2019-01-25T12:04:48.299Z,28.63
2019-01-25T12:10:35.278Z,21.30
2019-01-25T12:19:27.718Z,25.57
2019-01-25T12:22:09.553Z,24.03
2019-01-25T12:28:06.799Z,24.23
2019-01-25T12:30:56.282Z,26.73
2019-01-25T12:33:38.387Z,26.03
2019-01-25T12:39:35.663Z,30.40
2019-01-25T12:42:25.215Z,23.63
2019-01-25T12:45:09.265Z,22.77
2019-01-25T12:47:58.802Z,22.10
2019-01-25T12:50:42.029Z,25.20
2019-01-25T12:53:32.243Z,21.50
2019-01-25T12:56:15.482Z,22.87
2019-01-25T12:59:05.187Z,22.10
2019-01-25T13:01:50.985Z,22.30
2019-01-25T13:07:47.322Z,21.50
2019-01-25T13:10:36.865Z,19.27
2019-01-25T13:13:22.957Z,22.23
2019-01-25T13:16:06.116Z,15.97
2019-01-25T13:18:55.653Z,19.00
2019-01-25T13:21:37.798Z,21.97
2019-01-25T13:27:34.765Z,24.03
2019-01-25T13:31:05.099Z,20.40
2019-01-25T13:33:47.562Z,20.67
2019-01-25T13:36:37.101Z,22.33
2019-01-25T13:39:19.612Z,21.77
2019-01-25T13:42:09.188Z,25.97
2019-01-25T13:44:51.063Z,22.17
2019-01-25T13:47:32.786Z,22.73
2019-01-25T13:53:26.856Z,18.10
2019-01-25T13:56:08.941Z,20.93
2019-01-25T13:58:59.848Z,23.03
2019-01-25T14:01:42.512Z,19.57
2019-01-25T14:04:32.347Z,21.03
2019-01-25T14:07:14.899Z,20.30
2019-01-25T14:13:07.866Z,18.97
2019-01-25T14:15:49.618Z,17.17
2019-01-25T14:18:39.137Z,19.70
2019-01-25T14:21:21.702Z,21.03
2019-01-25T14:27:18.211Z,21.93
2019-01-25T14:30:50.204Z,21.37
2019-01-25T14:33:39.709Z,15.73
2019-01-25T14:36:22.239Z,20.47
2019-01-25T14:39:11.745Z,20.13
2019-01-25T14:41:53.507Z,15.97
2019-01-25T14:44:43.102Z,20.23
2019-01-25T14:47:25.561Z,20.20
2019-01-25T14:53:43.986Z,17.13
2019-01-25T14:56:33.500Z,22.20
2019-01-25T14:59:23.034Z,21.57
2019-01-25T15:02:05.461Z,24.13
2019-01-25T15:08:01.911Z,19.97
2019-01-25T15:10:51.415Z,21.87
2019-01-25T15:13:40.973Z,21.30
2019-01-25T15:16:30.491Z,18.93
2019-01-25T15:19:12.704Z,22.10
2019-01-25T15:22:02.310Z,13.90
2019-01-25T15:24:44.588Z,16.17
2019-01-25T15:27:34.443Z,17.00
2019-01-25T15:30:21.710Z,14.07
2019-01-25T15:33:12.617Z,13.60
2019-01-25T15:35:55.799Z,12.07
2019-01-25T15:42:06.607Z,12.07
2019-01-25T15:44:56.305Z,15.13
2019-01-25T15:47:39.735Z,12.53
2019-01-25T15:53:58.846Z,11.13
2019-01-25T15:56:41.975Z,13.97
2019-01-25T15:59:31.517Z,10.63
2019-01-25T16:02:14.802Z,12.20
2019-01-25T16:08:07.346Z,17.33
2019-01-25T16:10:50.876Z,10.90
2019-01-25T16:13:39.184Z,11.53
2019-01-25T16:16:24.701Z,12.73
2019-01-25T16:22:29.126Z,12.43
2019-01-25T16:28:24.464Z,12.97
2019-01-25T16:31:06.168Z,15.83
2019-01-25T16:33:55.735Z,12.33
2019-01-25T16:36:37.457Z,13.10
2019-01-25T16:45:36.245Z,12.67
2019-01-25T16:51:19.669Z,14.30
2019-01-25T16:54:09.233Z,14.37
2019-01-25T16:56:51.586Z,17.13
2019-01-25T16:59:41.191Z,13.87
2019-01-25T17:02:23.522Z,13.20
2019-01-25T17:05:06.028Z,13.97
2019-01-25T17:07:55.582Z,12.83
2019-01-25T17:10:37.948Z,17.83
2019-01-25T17:13:27.518Z,11.10
2019-01-25T17:16:09.606Z,14.27
2019-01-25T17:18:59.232Z,13.80
2019-01-25T17:21:43.059Z,12.97
2019-01-25T17:27:26.742Z,18.77
2019-01-25T17:30:35.724Z,15.17
2019-01-25T17:33:25.348Z,15.90
2019-01-25T17:36:09.000Z,14.80
2019-01-25T17:41:53.053Z,13.30
2019-01-25T17:44:42.601Z,15.40
2019-01-25T17:47:51.103Z,15.03
2019-01-25T17:50:32.911Z,15.57
2019-01-25T17:56:17.081Z,16.10
2019-01-25T17:58:59.263Z,13.57
2019-01-25T18:01:50.249Z,14.60
2019-01-25T18:04:32.731Z,14.50
2019-01-25T18:10:44.658Z,13.60
2019-01-25T18:13:34.341Z,13.80
2019-01-25T18:16:16.320Z,13.30
2019-01-25T18:19:05.857Z,11.43
2019-01-25T18:21:48.424Z,11.47
2019-01-25T18:27:46.796Z,12.80
2019-01-25T18:33:59.199Z,13.73
2019-01-25T18:36:41.686Z,15.07
2019-01-25T18:42:37.704Z,12.17
2019-01-25T18:45:41.180Z,14.30
2019-01-25T18:48:30.767Z,17.40
2019-01-25T18:51:13.455Z,17.17
2019-01-25T18:54:03.007Z,15.97
2019-01-25T18:56:47.188Z,16.37
2019-01-25T19:02:45.214Z,13.63
2019-01-25T19:05:35.348Z,16.40
2019-01-25T19:08:18.371Z,15.23
2019-01-25T19:11:07.948Z,15.27
2019-01-25T19:13:49.817Z,15.10
2019-01-25T19:16:59.274Z,17.47
2019-01-25T19:19:41.145Z,15.83
2019-01-25T19:22:30.711Z,14.93
2019-01-25T19:25:20.404Z,14.70
2019-01-25T19:31:21.860Z,16.90
2019-01-25T19:34:11.425Z,20.53
2019-01-25T19:36:53.211Z,16.23
2019-01-25T19:42:56.303Z,18.57
2019-01-25T19:49:07.361Z,16.53
2019-01-25T19:51:54.298Z,15.97
2019-01-25T19:54:37.456Z,16.63
2019-01-25T20:00:57.611Z,16.90
2019-01-25T20:03:47.379Z,20.13
2019-01-25T20:06:37.360Z,14.93
2019-01-25T20:09:19.371Z,15.97
2019-01-25T20:15:38.483Z,21.10
2019-01-25T20:18:28.372Z,21.67
2019-01-25T20:21:18.136Z,19.57
2019-01-25T20:24:25.901Z,19.57
2019-01-25T20:27:08.611Z,18.17
2019-01-25T20:33:30.504Z,18.53
2019-01-25T20:37:00.331Z,17.53
2019-01-25T20:39:43.151Z,18.27
2019-01-25T20:49:01.475Z,18.33
2019-01-25T20:51:45.783Z,18.87
2019-01-25T20:57:29.779Z,16.10
2019-01-25T21:03:41.051Z,18.80
2019-01-25T21:06:23.741Z,19.27
2019-01-25T21:12:24.627Z,18.87
2019-01-25T21:18:41.779Z,18.40
2019-01-25T21:21:31.490Z,18.77
2019-01-25T21:24:21.078Z,18.07
2019-01-25T21:27:03.381Z,18.60
2019-01-25T21:29:53.049Z,21.67
2019-01-25T21:32:35.019Z,21.03
2019-01-25T21:35:25.399Z,23.00
2019-01-25T21:38:11.629Z,24.60
2019-01-25T21:41:01.233Z,19.23
2019-01-25T21:43:45.791Z,18.07
2019-01-25T21:46:39.986Z,18.83
2019-01-25T21:49:19.902Z,19.97
2019-01-25T21:55:23.388Z,14.97
2019-01-25T21:58:05.753Z,21.27
2019-01-25T22:00:55.553Z,17.83
2019-01-25T22:03:37.865Z,20.03
2019-01-25T22:06:27.451Z,17.03
2019-01-25T22:09:11.586Z,16.50
2019-01-25T22:15:10.231Z,21.57
2019-01-25T22:17:59.812Z,20.00
2019-01-25T22:20:41.910Z,19.13
2019-01-25T22:23:31.482Z,19.27
2019-01-25T22:26:13.245Z,19.77
2019-01-25T22:29:02.977Z,18.70
2019-01-25T22:35:01.652Z,20.87
2019-01-25T22:37:53.121Z,17.07
2019-01-25T22:40:35.297Z,19.83
2019-01-25T22:46:33.226Z,17.87
2019-01-25T22:49:22.881Z,18.17
2019-01-25T22:52:06.306Z,16.97
2019-01-25T22:54:48.589Z,19.37
2019-01-25T22:57:38.180Z,17.30
2019-01-25T23:00:49.084Z,18.87
2019-01-25T23:04:16.755Z,20.70
2019-01-25T23:07:26.660Z,19.63
2019-01-25T23:10:12.399Z,18.80
2019-01-25T23:13:01.923Z,23.30
2019-01-25T23:24:57.296Z,17.27
2019-01-25T23:27:40.304Z,17.43
2019-01-25T23:30:23.534Z,15.13
2019-01-25T23:33:13.125Z,20.37
2019-01-25T23:35:55.285Z,16.87
2019-01-25T23:38:47.551Z,19.97
2019-01-25T23:41:31.168Z,16.57
2019-01-25T23:44:20.688Z,18.10
2019-01-25T23:47:02.417Z,18.80
2019-01-25T23:49:51.928Z,18.10
2019-01-25T23:52:35.097Z,16.03
2019-01-25T23:55:24.643Z,16.00
2019-01-25T23:58:06.672Z,17.70
